createdAt,value
2023-03-24T00:01:54.151Z,97580.41
2023-03-24T00:04:21.781Z,97598.84
2023-03-24T00:06:52.451Z,97620.81
2023-03-24T00:09:19.668Z,97634.16
2023-03-24T00:11:46.759Z,97652.38
2023-03-24T00:14:13.918Z,97664.03
2023-03-24T00:16:45.513Z,97686.84
2023-03-24T00:19:15.693Z,97705.44
2023-03-24T00:21:43.624Z,97719.94
2023-03-24T00:24:11.576Z,97741.47
2023-03-24T00:26:39.915Z,97754.91
2023-03-24T00:29:08.464Z,97765.06
2023-03-24T00:31:40.018Z,97779.56
2023-03-24T00:34:08.739Z,97785.75
2023-03-24T00:36:36.648Z,97790.31
2023-03-24T00:39:04.885Z,97803.16
2023-03-24T00:41:32.315Z,97813.91
2023-03-24T00:43:59.996Z,97828.38
2023-03-24T00:46:27.650Z,97841.25
2023-03-24T00:49:05.434Z,97843.94
2023-03-24T00:51:34.781Z,97839.59
2023-03-24T00:54:02.203Z,97857.38
2023-03-24T00:56:32.861Z,97861.47
2023-03-24T00:59:02.317Z,97870.97
2023-03-24T01:01:33.065Z,97887.72
2023-03-24T01:04:00.533Z,97897.44
2023-03-24T01:06:27.674Z,97899.88
2023-03-24T01:08:54.835Z,97916.25
2023-03-24T01:11:24.241Z,97918.13
2023-03-24T01:13:53.319Z,97920.22
2023-03-24T01:16:22.163Z,97930.16
2023-03-24T01:18:49.457Z,97937.59
2023-03-24T01:21:18.302Z,97962.84
2023-03-24T01:23:45.335Z,97932.69
2023-03-24T01:26:12.408Z,97955.81
2023-03-24T01:28:43.777Z,97971.94
2023-03-24T01:31:11.826Z,97997.78
2023-03-24T01:33:39.141Z,98028.72
2023-03-24T01:36:06.742Z,98051.03
2023-03-24T01:38:34.325Z,98064.69
2023-03-24T01:41:01.481Z,98060.56
2023-03-24T01:43:33.409Z,98086.63
2023-03-24T01:46:05.621Z,98122.25
2023-03-24T01:48:53.164Z,98170.44
2023-03-24T01:51:26.699Z,98187.22
2023-03-24T01:54:02.416Z,98209.13
2023-03-24T01:56:32.463Z,98223.56
2023-03-24T01:59:01.168Z,98243.44
2023-03-24T02:01:37.485Z,98262.44
2023-03-24T02:04:38.868Z,98274.03
2023-03-24T02:07:28.009Z,98294.53
2023-03-24T02:09:55.079Z,98313.56
2023-03-24T02:12:22.290Z,98350.16
2023-03-24T02:14:50.529Z,98374.16
2023-03-24T02:17:21.646Z,98409.09
2023-03-24T02:19:55.090Z,98424.41
2023-03-24T02:22:34.501Z,98454.78
2023-03-24T02:25:14.030Z,98462.59
2023-03-24T02:27:56.395Z,98474.81
2023-03-24T02:30:33.225Z,98517.19
2023-03-24T02:33:19.126Z,98531.66
2023-03-24T02:36:04.852Z,98421.25
2023-03-24T02:38:42.482Z,98409.69
2023-03-24T02:41:21.810Z,98429.13
2023-03-24T02:43:52.002Z,98414.22
2023-03-24T02:46:30.777Z,98426.19
2023-03-24T02:49:01.075Z,98418.97
2023-03-24T02:51:31.262Z,98523.56
2023-03-24T02:54:07.675Z,98573.78
2023-03-24T02:56:53.412Z,98571.72
2023-03-24T02:59:54.103Z,98573.97
2023-03-24T03:02:45.631Z,98567.75
2023-03-24T03:05:33.077Z,98581.19
2023-03-24T03:08:01.451Z,98561.78
2023-03-24T03:10:34.228Z,98564.22
2023-03-24T03:13:04.686Z,98575.38
2023-03-24T03:15:34.530Z,98585.50
2023-03-24T03:18:07.271Z,98586.34
2023-03-24T03:20:38.335Z,98588.84
2023-03-24T03:23:08.346Z,98596.47
2023-03-24T03:25:38.712Z,98596.44
2023-03-24T03:28:06.268Z,98589.22
2023-03-24T03:30:41.827Z,98573.28
2023-03-24T03:33:29.181Z,98583.25
2023-03-24T03:36:18.069Z,98586.72
2023-03-24T03:38:47.891Z,98593.16
2023-03-24T03:41:18.290Z,98607.59
2023-03-24T03:43:48.279Z,98608.03
2023-03-24T03:46:16.698Z,98622.09
2023-03-24T03:48:44.994Z,98619.22
2023-03-24T03:51:14.461Z,98623.75
2023-03-24T03:53:49.305Z,98617.97
2023-03-24T03:56:21.914Z,98629.53
2023-03-24T03:58:59.932Z,98627.91
2023-03-24T04:01:29.288Z,98627.06
2023-03-24T04:04:26.209Z,98621.72
2023-03-24T04:07:20.640Z,98613.41
2023-03-24T04:10:05.892Z,98634.53
2023-03-24T04:12:51.936Z,98647.31
2023-03-24T04:15:55.667Z,98640.28
2023-03-24T04:19:03.487Z,98641.56
2023-03-24T04:21:33.858Z,98655.63
2023-03-24T04:24:12.730Z,98658.94
2023-03-24T04:26:48.048Z,98661.63
2023-03-24T04:29:25.960Z,98656.66
2023-03-24T04:32:03.081Z,98663.47
2023-03-24T04:34:33.350Z,98671.53
2023-03-24T04:37:23.280Z,98676.91
2023-03-24T04:40:06.067Z,98670.50
2023-03-24T04:42:45.577Z,98683.94
2023-03-24T04:45:14.548Z,98682.09
2023-03-24T04:48:01.943Z,98673.41
2023-03-24T04:50:48.269Z,98673.00
2023-03-24T04:53:19.328Z,98679.84
2023-03-24T04:55:49.695Z,98686.84
2023-03-24T04:58:23.016Z,98678.00
2023-03-24T05:00:51.277Z,98694.13
2023-03-24T05:03:18.935Z,98699.06
2023-03-24T05:05:48.291Z,98699.91
2023-03-24T05:08:16.556Z,98693.69
2023-03-24T05:10:44.182Z,98699.53
2023-03-24T05:13:12.148Z,98702.22
2023-03-24T05:15:52.927Z,98683.81
2023-03-24T05:18:32.122Z,98684.00
2023-03-24T05:21:00.265Z,98703.47
2023-03-24T05:23:27.883Z,98697.47
2023-03-24T05:25:56.497Z,98685.09
2023-03-24T05:28:25.182Z,98682.19
2023-03-24T05:30:55.031Z,98681.19
2023-03-24T05:33:40.896Z,98675.16
2023-03-24T05:36:11.437Z,98679.06
2023-03-24T05:38:40.315Z,98678.44
2023-03-24T05:41:07.468Z,98679.69
2023-03-24T05:43:38.319Z,98687.34
2023-03-24T05:46:11.181Z,98692.50
2023-03-24T05:48:38.373Z,98699.56
2023-03-24T05:51:13.025Z,98694.19
2023-03-24T05:53:40.577Z,98701.22
2023-03-24T05:56:18.838Z,98697.47
2023-03-24T05:59:04.297Z,98706.00
2023-03-24T06:01:58.495Z,98696.44
2023-03-24T06:04:52.164Z,98701.69
2023-03-24T06:07:26.964Z,98706.25
2023-03-24T06:09:58.015Z,98706.50
2023-03-24T06:12:25.769Z,98698.25
2023-03-24T06:15:00.879Z,98702.56
2023-03-24T06:17:30.369Z,98699.06
2023-03-24T06:20:05.669Z,98688.09
2023-03-24T06:22:47.538Z,98678.19
2023-03-24T06:25:20.226Z,98673.59
2023-03-24T06:28:05.847Z,98671.94
2023-03-24T06:30:34.242Z,98679.81
2023-03-24T06:33:01.559Z,98695.56
2023-03-24T06:35:28.816Z,98696.38
2023-03-24T06:38:04.116Z,98705.25
2023-03-24T06:40:31.627Z,98706.31
2023-03-24T06:42:59.421Z,98708.38
2023-03-24T06:45:27.607Z,98719.50
2023-03-24T06:47:58.343Z,98725.72
2023-03-24T06:50:33.229Z,98727.78
2023-03-24T06:53:02.498Z,98731.72
2023-03-24T06:55:32.495Z,98729.84
2023-03-24T06:57:59.706Z,98741.22
2023-03-24T07:00:35.332Z,98742.28
2023-03-24T07:03:28.547Z,98748.44
2023-03-24T07:06:29.874Z,98752.59
2023-03-24T07:09:02.991Z,98768.34
2023-03-24T07:11:31.645Z,98775.41
2023-03-24T07:14:00.246Z,98788.44
2023-03-24T07:16:29.005Z,98792.13
2023-03-24T07:19:16.380Z,98786.75
2023-03-24T07:21:50.027Z,98799.38
2023-03-24T07:24:21.404Z,98809.09
2023-03-24T07:26:59.498Z,98814.28
2023-03-24T07:29:26.551Z,98838.50
2023-03-24T07:32:14.017Z,98831.25
2023-03-24T07:34:41.426Z,98857.31
2023-03-24T07:37:08.493Z,98865.00
2023-03-24T07:39:35.628Z,98864.59
2023-03-24T07:42:02.874Z,98879.72
2023-03-24T07:44:53.000Z,98878.06
2023-03-24T07:47:20.235Z,98894.03
2023-03-24T07:49:48.111Z,98913.72
2023-03-24T07:52:15.249Z,98915.16
2023-03-24T07:54:45.309Z,98924.91
2023-03-24T07:57:32.457Z,98929.88
2023-03-24T07:59:59.880Z,98949.97
2023-03-24T08:02:53.664Z,98951.06
2023-03-24T08:05:40.531Z,98965.34
2023-03-24T08:08:20.263Z,98977.75
2023-03-24T08:10:50.076Z,98996.59
2023-03-24T08:13:18.174Z,99000.50
2023-03-24T08:15:45.536Z,99001.53
2023-03-24T08:18:12.843Z,99006.56
2023-03-24T08:20:40.044Z,99025.00
2023-03-24T08:23:08.426Z,99036.66
2023-03-24T08:25:36.510Z,99041.84
2023-03-24T08:28:04.354Z,99047.22
2023-03-24T08:30:31.761Z,99065.09
2023-03-24T08:33:00.508Z,99081.09
2023-03-24T08:35:29.046Z,99073.38
2023-03-24T08:37:56.204Z,99090.84
2023-03-24T08:40:24.262Z,99098.50
2023-03-24T08:42:52.968Z,99110.16
2023-03-24T08:45:21.246Z,99123.72
2023-03-24T08:47:49.333Z,99134.50
2023-03-24T08:50:16.527Z,99132.84
2023-03-24T08:52:43.966Z,99145.50
2023-03-24T08:55:11.443Z,99149.63
2023-03-24T08:57:38.518Z,99153.97
2023-03-24T09:00:15.451Z,99149.63
2023-03-24T09:02:43.387Z,99171.44
2023-03-24T09:05:11.382Z,99176.56
2023-03-24T09:07:38.858Z,99172.41
2023-03-24T09:10:07.455Z,99187.28
2023-03-24T09:12:35.233Z,99197.84
2023-03-24T09:15:02.867Z,99213.00
2023-03-24T09:17:29.937Z,99214.41
2023-03-24T09:19:57.108Z,99229.69
2023-03-24T09:22:24.282Z,99231.31
2023-03-24T09:24:51.417Z,99239.16
2023-03-24T09:27:18.657Z,99245.56
2023-03-24T09:29:45.931Z,99254.88
2023-03-24T09:32:13.009Z,99265.44
2023-03-24T09:34:40.051Z,99278.66
2023-03-24T09:37:07.175Z,99275.13
2023-03-24T09:39:37.080Z,99288.56
2023-03-24T09:42:05.654Z,99288.97
2023-03-24T09:44:41.160Z,99295.81
2023-03-24T09:47:11.641Z,99293.25
2023-03-24T09:49:41.611Z,99303.47
2023-03-24T09:52:12.764Z,99305.69
2023-03-24T09:54:42.671Z,99302.81
2023-03-24T09:57:32.522Z,99297.25
2023-03-24T09:59:59.677Z,99300.84
2023-03-24T10:02:28.437Z,99311.91
2023-03-24T10:04:56.051Z,99320.16
2023-03-24T10:07:49.674Z,99316.19
2023-03-24T10:10:22.203Z,99284.47
2023-03-24T10:12:49.665Z,99299.88
2023-03-24T10:15:37.774Z,99289.28
2023-03-24T10:18:20.927Z,99272.47
2023-03-24T10:20:53.624Z,99256.78
2023-03-24T10:23:29.747Z,99248.53
2023-03-24T10:26:04.625Z,99245.97
2023-03-24T10:28:31.678Z,99263.25
2023-03-24T10:31:02.555Z,99294.03
2023-03-24T10:33:29.874Z,99301.56
2023-03-24T10:36:01.956Z,99340.53
2023-03-24T10:38:29.284Z,99354.19
2023-03-24T10:40:56.406Z,99377.41
2023-03-24T10:43:24.095Z,99378.84
2023-03-24T10:45:55.829Z,99413.41
2023-03-24T10:48:41.975Z,99410.41
2023-03-24T10:51:28.503Z,99418.28
2023-03-24T10:54:22.186Z,99427.38
2023-03-24T10:56:51.414Z,99430.81
2023-03-24T10:59:25.498Z,99447.53
2023-03-24T11:02:00.538Z,99450.88
2023-03-24T11:04:30.791Z,99444.03
2023-03-24T11:07:02.643Z,99457.09
2023-03-24T11:09:32.447Z,99469.63
2023-03-24T11:12:02.981Z,99469.19
2023-03-24T11:14:30.932Z,99471.66
2023-03-24T11:17:12.012Z,99466.03
2023-03-24T11:19:39.966Z,99465.59
2023-03-24T11:22:08.801Z,99488.50
2023-03-24T11:24:37.817Z,99477.84
2023-03-24T11:27:05.096Z,99487.66
2023-03-24T11:29:39.406Z,99483.47
2023-03-24T11:32:22.037Z,99477.47
2023-03-24T11:34:52.711Z,99468.84
2023-03-24T11:37:22.226Z,99473.47
2023-03-24T11:40:16.828Z,99484.41
2023-03-24T11:42:46.201Z,99461.91
2023-03-24T11:45:34.521Z,99455.03
2023-03-24T11:48:02.615Z,99465.97
2023-03-24T11:50:31.979Z,99476.38
2023-03-24T11:53:02.183Z,99458.84
2023-03-24T11:55:35.432Z,99451.16
2023-03-24T11:58:29.050Z,99461.56
2023-03-24T12:01:25.859Z,99445.16
2023-03-24T12:03:53.057Z,99412.53
2023-03-24T12:06:28.507Z,99422.97
2023-03-24T12:09:13.623Z,99430.38
2023-03-24T12:11:49.533Z,99414.91
2023-03-24T12:14:23.392Z,99399.53
2023-03-24T12:16:58.850Z,99399.38
2023-03-24T12:19:46.445Z,99360.47
2023-03-24T12:22:19.740Z,99325.09
2023-03-24T12:25:16.327Z,99325.03
2023-03-24T12:28:12.768Z,99280.81
2023-03-24T12:30:58.470Z,99275.81
2023-03-24T12:33:28.620Z,99259.81
2023-03-24T12:36:11.071Z,99266.00
2023-03-24T12:38:41.038Z,99258.56
2023-03-24T12:41:16.353Z,99248.56
2023-03-24T12:43:49.459Z,99250.72
2023-03-24T12:46:19.466Z,99232.38
2023-03-24T12:48:46.584Z,99233.47
2023-03-24T12:51:22.940Z,99246.56
2023-03-24T12:53:56.325Z,99208.50
2023-03-24T12:56:26.580Z,99211.81
2023-03-24T12:58:59.635Z,99236.00
2023-03-24T13:01:35.020Z,99225.16
2023-03-24T13:04:11.288Z,99192.94
2023-03-24T13:06:41.715Z,99213.31
2023-03-24T13:09:15.687Z,99182.53
2023-03-24T13:12:01.494Z,99176.09
2023-03-24T13:14:31.755Z,99170.06
2023-03-24T13:17:05.310Z,99154.91
2023-03-24T13:19:34.112Z,99140.34
2023-03-24T13:22:02.421Z,99114.38
2023-03-24T13:24:29.986Z,99131.03
2023-03-24T13:26:57.064Z,99133.72
2023-03-24T13:29:49.072Z,99131.00
2023-03-24T13:32:23.782Z,99096.94
2023-03-24T13:35:10.139Z,99084.47
2023-03-24T13:38:00.344Z,99093.56
2023-03-24T13:40:28.918Z,99041.22
2023-03-24T13:43:07.184Z,99057.03
2023-03-24T13:45:38.226Z,99041.22
2023-03-24T13:48:11.342Z,99029.78
2023-03-24T13:50:41.152Z,99008.22
2023-03-24T13:53:15.069Z,98989.72
2023-03-24T13:55:50.845Z,98987.22
2023-03-24T13:58:19.857Z,98968.97
2023-03-24T14:01:06.307Z,98978.94
2023-03-24T14:03:34.871Z,98959.00
2023-03-24T14:06:04.862Z,98982.28
2023-03-24T14:08:51.178Z,98955.47
2023-03-24T14:11:34.051Z,98933.88
2023-03-24T14:14:13.421Z,98946.50
2023-03-24T14:16:59.195Z,98932.81
2023-03-24T14:19:29.612Z,98922.03
2023-03-24T14:22:11.847Z,98922.41
2023-03-24T14:24:40.406Z,98905.56
2023-03-24T14:27:30.557Z,98902.03
2023-03-24T14:30:00.891Z,98872.94
2023-03-24T14:32:28.004Z,98893.41
2023-03-24T14:35:00.212Z,98860.41
2023-03-24T14:37:28.582Z,98826.56
2023-03-24T14:39:57.519Z,98814.09
2023-03-24T14:42:28.946Z,98800.81
2023-03-24T14:44:56.904Z,98761.53
2023-03-24T14:47:30.262Z,98734.09
2023-03-24T14:49:58.009Z,98713.94
2023-03-24T14:52:28.390Z,98701.88
2023-03-24T14:54:59.916Z,98687.38
2023-03-24T14:57:28.801Z,98637.41
2023-03-24T14:59:56.011Z,98605.03
2023-03-24T15:02:37.546Z,98559.13
2023-03-24T15:05:16.799Z,98530.78
2023-03-24T15:07:45.050Z,98491.00
2023-03-24T15:10:16.261Z,98466.81
2023-03-24T15:12:47.254Z,98448.59
2023-03-24T15:15:24.059Z,98445.06
2023-03-24T15:17:51.594Z,98429.69
2023-03-24T15:20:29.282Z,98413.09
2023-03-24T15:22:56.703Z,98403.88
2023-03-24T15:25:28.224Z,98411.72
2023-03-24T15:27:56.827Z,98411.25
2023-03-24T15:30:24.788Z,98421.63
2023-03-24T15:32:52.199Z,98434.66
2023-03-24T15:35:21.184Z,98457.88
2023-03-24T15:37:52.657Z,98476.19
2023-03-24T15:40:25.803Z,98483.28
2023-03-24T15:42:53.844Z,98497.66
2023-03-24T15:45:24.100Z,98507.22
2023-03-24T15:47:52.058Z,98531.84
2023-03-24T15:50:39.737Z,98526.53
2023-03-24T15:53:18.854Z,98543.53
2023-03-24T15:55:46.168Z,98580.59
2023-03-24T15:58:27.886Z,98622.38
2023-03-24T16:00:57.354Z,98640.16
2023-03-24T16:03:27.705Z,98639.91
2023-03-24T16:05:56.026Z,98669.28
2023-03-24T16:08:35.748Z,98695.16
2023-03-24T16:11:07.712Z,98697.41
2023-03-24T16:13:35.353Z,98725.72
2023-03-24T16:16:03.648Z,98734.09
2023-03-24T16:18:34.932Z,98752.38
2023-03-24T16:21:02.824Z,98760.09
2023-03-24T16:23:30.431Z,98771.00
2023-03-24T16:25:57.499Z,98776.09
2023-03-24T16:28:25.224Z,98799.69
2023-03-24T16:30:58.445Z,98778.78
2023-03-24T16:33:25.601Z,98788.94
2023-03-24T16:35:53.114Z,98787.63
2023-03-24T16:38:22.185Z,98793.88
2023-03-24T16:40:50.986Z,98765.78
2023-03-24T16:43:19.741Z,98783.66
2023-03-24T16:45:47.575Z,98782.13
2023-03-24T16:48:15.121Z,98764.09
2023-03-24T16:50:43.431Z,98764.22
2023-03-24T16:53:10.590Z,98782.00
2023-03-24T16:55:39.291Z,98783.03
2023-03-24T16:58:06.388Z,98791.47
2023-03-24T17:00:37.033Z,98790.66
2023-03-24T17:03:04.956Z,98782.53
2023-03-24T17:05:41.725Z,98789.75
2023-03-24T17:08:10.401Z,98794.41
2023-03-24T17:10:37.707Z,98805.22
2023-03-24T17:13:04.812Z,98798.88
2023-03-24T17:15:33.335Z,98798.16
2023-03-24T17:18:00.917Z,98781.88
2023-03-24T17:20:29.617Z,98794.34
2023-03-24T17:22:57.005Z,98788.53
2023-03-24T17:25:24.237Z,98768.09
2023-03-24T17:27:51.467Z,98762.06
2023-03-24T17:30:20.345Z,98782.13
2023-03-24T17:32:47.853Z,98789.16
2023-03-24T17:35:16.613Z,98790.81
2023-03-24T17:37:43.762Z,98786.59
2023-03-24T17:40:13.097Z,98801.19
2023-03-24T17:42:41.157Z,98786.41
2023-03-24T17:45:09.337Z,98777.81
2023-03-24T17:47:36.529Z,98775.78
2023-03-24T17:50:09.573Z,98773.63
2023-03-24T17:52:37.599Z,98767.31
2023-03-24T17:55:05.591Z,98757.72
2023-03-24T17:57:33.624Z,98755.81
2023-03-24T18:00:00.771Z,98772.28
2023-03-24T18:02:27.858Z,98773.19
2023-03-24T18:04:55.169Z,98775.56
2023-03-24T18:07:23.077Z,98781.75
2023-03-24T18:09:51.279Z,98795.88
2023-03-24T18:12:18.904Z,98792.50
2023-03-24T18:14:46.156Z,98798.22
2023-03-24T18:17:13.333Z,98804.50
2023-03-24T18:19:40.750Z,98803.22
2023-03-24T18:22:07.921Z,98805.91
2023-03-24T18:24:35.565Z,98808.00
2023-03-24T18:27:03.770Z,98810.25
2023-03-24T18:29:31.599Z,98817.28
2023-03-24T18:31:58.783Z,98819.50
2023-03-24T18:34:26.592Z,98825.53
2023-03-24T18:36:53.681Z,98836.69
2023-03-24T18:39:21.242Z,98833.75
2023-03-24T18:41:48.618Z,98846.59
2023-03-24T18:44:16.149Z,98830.88
2023-03-24T18:46:43.419Z,98841.44
2023-03-24T18:49:17.104Z,98847.53
2023-03-24T18:51:46.155Z,98837.84
2023-03-24T18:54:13.480Z,98856.88
2023-03-24T18:56:41.847Z,98861.41
2023-03-24T18:59:09.409Z,98864.94
2023-03-24T19:01:36.468Z,98862.63
2023-03-24T19:04:03.873Z,98865.03
2023-03-24T19:06:31.647Z,98868.31
2023-03-24T19:08:59.357Z,98873.09
2023-03-24T19:11:27.046Z,98893.16
2023-03-24T19:13:55.869Z,98886.03
2023-03-24T19:16:23.396Z,98886.88
2023-03-24T19:18:51.094Z,98901.59
2023-03-24T19:21:19.370Z,98893.28
2023-03-24T19:23:46.812Z,98900.50
2023-03-24T19:26:16.468Z,98894.09
2023-03-24T19:28:43.880Z,98905.38
2023-03-24T19:31:12.912Z,98899.47
2023-03-24T19:33:39.980Z,98887.81
2023-03-24T19:36:08.935Z,98898.53
2023-03-24T19:38:38.474Z,98907.81
2023-03-24T19:41:08.475Z,98914.28
2023-03-24T19:43:36.764Z,98925.25
2023-03-24T19:46:04.709Z,98936.47
2023-03-24T19:48:32.134Z,98941.84
2023-03-24T19:51:00.228Z,98947.19
2023-03-24T19:53:27.563Z,98962.56
2023-03-24T19:55:58.225Z,98951.25
2023-03-24T19:58:25.537Z,98949.47
2023-03-24T20:00:53.365Z,98949.38
2023-03-24T20:03:21.239Z,98955.22
2023-03-24T20:05:49.226Z,98956.06
2023-03-24T20:08:16.880Z,98967.16
2023-03-24T20:10:44.027Z,98975.34
2023-03-24T20:13:11.432Z,98972.50
2023-03-24T20:15:39.916Z,98982.59
2023-03-24T20:18:07.903Z,98978.25
2023-03-24T20:20:34.968Z,98977.31
2023-03-24T20:23:02.093Z,98977.66
2023-03-24T20:25:29.293Z,98980.38
2023-03-24T20:27:56.724Z,98986.75
2023-03-24T20:30:24.203Z,98996.44
2023-03-24T20:32:54.928Z,98979.25
2023-03-24T20:35:22.492Z,98986.13
2023-03-24T20:37:49.833Z,98986.41
2023-03-24T20:40:17.373Z,98989.25
2023-03-24T20:42:44.471Z,98988.03
2023-03-24T20:45:11.912Z,98996.84
2023-03-24T20:47:39.385Z,98996.19
2023-03-24T20:50:07.231Z,99008.56
2023-03-24T20:52:35.053Z,99011.31
2023-03-24T20:55:05.773Z,99016.28
2023-03-24T20:57:33.757Z,99012.88
2023-03-24T21:00:00.907Z,99020.53
2023-03-24T21:02:28.208Z,99028.06
2023-03-24T21:04:55.601Z,99047.09
2023-03-24T21:07:22.777Z,99037.94
2023-03-24T21:09:49.964Z,99037.66
2023-03-24T21:12:17.030Z,99045.91
2023-03-24T21:14:46.744Z,99044.94
2023-03-24T21:17:13.981Z,99050.44
2023-03-24T21:19:46.815Z,99060.66
2023-03-24T21:22:15.195Z,99063.69
2023-03-24T21:24:42.313Z,99073.38
2023-03-24T21:27:09.478Z,99077.44
2023-03-24T21:29:36.659Z,99080.66
2023-03-24T21:32:03.967Z,99073.97
2023-03-24T21:34:31.504Z,99082.66
2023-03-24T21:37:01.508Z,99092.38
2023-03-24T21:39:28.957Z,99093.53
2023-03-24T21:41:56.156Z,99093.94
2023-03-24T21:44:23.423Z,99110.66
2023-03-24T21:46:50.650Z,99113.34
2023-03-24T21:49:18.880Z,99109.34
2023-03-24T21:51:46.787Z,99116.72
2023-03-24T21:54:14.754Z,99111.91
2023-03-24T21:56:42.163Z,99129.78
2023-03-24T21:59:11.152Z,99136.81
2023-03-24T22:01:38.411Z,99141.50
2023-03-24T22:04:07.399Z,99150.72
2023-03-24T22:06:37.826Z,99147.41
2023-03-24T22:09:10.357Z,99152.09
2023-03-24T22:11:42.593Z,99151.25
2023-03-24T22:14:10.045Z,99154.44
2023-03-24T22:16:37.168Z,99149.94
2023-03-24T22:19:04.262Z,99160.13
2023-03-24T22:21:32.243Z,99166.66
2023-03-24T22:23:59.514Z,99158.16
2023-03-24T22:26:26.631Z,99167.50
2023-03-24T22:28:55.984Z,99169.00
2023-03-24T22:31:24.232Z,99171.38
2023-03-24T22:33:51.633Z,99173.88
2023-03-24T22:36:18.721Z,99169.72
2023-03-24T22:38:45.969Z,99162.84
2023-03-24T22:41:13.221Z,99172.72
2023-03-24T22:43:41.559Z,99173.91
2023-03-24T22:46:09.456Z,99174.59
2023-03-24T22:48:38.257Z,99172.56
2023-03-24T22:51:05.597Z,99183.09
2023-03-24T22:53:32.648Z,99177.59
2023-03-24T22:55:59.828Z,99184.78
2023-03-24T22:58:27.035Z,99195.66
2023-03-24T23:00:55.288Z,99190.31
2023-03-24T23:03:22.624Z,99199.16
2023-03-24T23:05:49.969Z,99216.19
2023-03-24T23:08:17.252Z,99206.69
2023-03-24T23:10:45.027Z,99214.19
2023-03-24T23:13:12.470Z,99220.91
2023-03-24T23:15:42.535Z,99220.88
2023-03-24T23:18:10.384Z,99223.41
2023-03-24T23:20:37.622Z,99240.94
2023-03-24T23:23:06.739Z,99242.59
2023-03-24T23:25:38.627Z,99241.28
2023-03-24T23:28:05.959Z,99252.47
2023-03-24T23:30:33.046Z,99246.47
2023-03-24T23:33:00.259Z,99230.88
2023-03-24T23:35:27.493Z,99236.56
2023-03-24T23:37:54.607Z,99239.94
2023-03-24T23:40:21.705Z,99246.13
2023-03-24T23:42:49.278Z,99244.56
2023-03-24T23:45:18.083Z,99243.56
2023-03-24T23:47:47.288Z,99245.88
2023-03-24T23:50:18.019Z,99245.91
2023-03-24T23:52:45.436Z,99236.03
2023-03-24T23:55:13.706Z,99257.94
2023-03-24T23:57:42.387Z,99260.28
